sensor_id;sensor_type;location;lat;lon;timestamp;P1;durP1;ratioP1;P2;durP2;ratioP2
23406;SDS011;11876;53.438;18.942;2023-05-09T00:02:59;26.40;;;16.33;;
23406;SDS011;11876;53.438;18.942;2023-05-09T00:06:02;21.43;;;14.60;;
23406;SDS011;11876;53.438;18.942;2023-05-09T00:09:05;19.58;;;15.40;;
23406;SDS011;11876;53.438;18.942;2023-05-09T00:12:08;19.15;;;14.20;;
23406;SDS011;11876;53.438;18.942;2023-05-09T00:15:12;20.48;;;14.45;;
23406;SDS011;11876;53.438;18.942;2023-05-09T00:18:15;21.20;;;14.98;;
23406;SDS011;11876;53.438;18.942;2023-05-09T00:21:18;23.00;;;14.63;;
23406;SDS011;11876;53.438;18.942;2023-05-09T00:24:21;22.42;;;15.95;;
23406;SDS011;11876;53.438;18.942;2023-05-09T00:27:24;22.92;;;16.48;;
23406;SDS011;11876;53.438;18.942;2023-05-09T00:30:26;21.05;;;16.10;;
23406;SDS011;11876;53.438;18.942;2023-05-09T00:33:28;21.63;;;15.60;;
23406;SDS011;11876;53.438;18.942;2023-05-09T00:36:31;17.83;;;13.32;;
23406;SDS011;11876;53.438;18.942;2023-05-09T00:39:33;20.10;;;14.82;;
23406;SDS011;11876;53.438;18.942;2023-05-09T00:42:36;22.17;;;16.10;;
23406;SDS011;11876;53.438;18.942;2023-05-09T00:45:38;24.95;;;15.95;;
23406;SDS011;11876;53.438;18.942;2023-05-09T00:48:41;22.92;;;17.63;;
23406;SDS011;11876;53.438;18.942;2023-05-09T00:51:43;23.98;;;17.52;;
23406;SDS011;11876;53.438;18.942;2023-05-09T00:54:46;24.95;;;20.23;;
23406;SDS011;11876;53.438;18.942;2023-05-09T00:57:48;22.95;;;18.13;;
23406;SDS011;11876;53.438;18.942;2023-05-09T01:00:50;25.92;;;18.00;;
23406;SDS011;11876;53.438;18.942;2023-05-09T01:03:53;21.92;;;17.30;;
23406;SDS011;11876;53.438;18.942;2023-05-09T01:06:58;22.73;;;18.20;;
23406;SDS011;11876;53.438;18.942;2023-05-09T01:13:23;26.67;;;20.08;;
23406;SDS011;11876;53.438;18.942;2023-05-09T01:16:39;26.30;;;18.10;;
23406;SDS011;11876;53.438;18.942;2023-05-09T01:30:33;25.20;;;19.60;;
23406;SDS011;11876;53.438;18.942;2023-05-09T01:33:37;23.67;;;15.55;;
23406;SDS011;11876;53.438;18.942;2023-05-09T01:36:41;29.70;;;21.75;;
23406;SDS011;11876;53.438;18.942;2023-05-09T01:39:45;29.08;;;21.73;;
23406;SDS011;11876;53.438;18.942;2023-05-09T01:42:51;26.15;;;19.00;;
23406;SDS011;11876;53.438;18.942;2023-05-09T01:46:00;24.48;;;18.48;;
23406;SDS011;11876;53.438;18.942;2023-05-09T01:49:03;50.90;;;34.78;;
23406;SDS011;11876;53.438;18.942;2023-05-09T01:52:07;27.63;;;19.77;;
23406;SDS011;11876;53.438;18.942;2023-05-09T01:55:12;25.90;;;19.38;;
23406;SDS011;11876;53.438;18.942;2023-05-09T01:58:16;25.02;;;20.85;;
23406;SDS011;11876;53.438;18.942;2023-05-09T02:01:19;17.45;;;14.13;;
23406;SDS011;11876;53.438;18.942;2023-05-09T02:04:23;26.77;;;19.80;;
23406;SDS011;11876;53.438;18.942;2023-05-09T02:07:26;25.88;;;17.58;;
23406;SDS011;11876;53.438;18.942;2023-05-09T02:10:30;25.58;;;18.70;;
23406;SDS011;11876;53.438;18.942;2023-05-09T02:13:33;26.95;;;19.15;;
23406;SDS011;11876;53.438;18.942;2023-05-09T02:16:36;28.38;;;20.88;;
23406;SDS011;11876;53.438;18.942;2023-05-09T02:19:41;26.08;;;18.85;;
23406;SDS011;11876;53.438;18.942;2023-05-09T02:22:44;25.80;;;19.47;;
23406;SDS011;11876;53.438;18.942;2023-05-09T02:25:47;28.73;;;22.70;;
23406;SDS011;11876;53.438;18.942;2023-05-09T02:28:50;41.38;;;26.50;;
23406;SDS011;11876;53.438;18.942;2023-05-09T02:31:52;42.60;;;25.98;;
23406;SDS011;11876;53.438;18.942;2023-05-09T02:34:55;35.47;;;24.67;;
23406;SDS011;11876;53.438;18.942;2023-05-09T02:37:59;35.50;;;24.25;;
23406;SDS011;11876;53.438;18.942;2023-05-09T02:41:02;36.80;;;25.67;;
23406;SDS011;11876;53.438;18.942;2023-05-09T02:44:04;40.10;;;27.10;;
23406;SDS011;11876;53.438;18.942;2023-05-09T02:47:06;42.90;;;28.95;;
23406;SDS011;11876;53.438;18.942;2023-05-09T02:50:09;34.60;;;23.58;;
23406;SDS011;11876;53.438;18.942;2023-05-09T02:53:13;27.88;;;22.30;;
23406;SDS011;11876;53.438;18.942;2023-05-09T02:56:15;26.20;;;18.92;;
23406;SDS011;11876;53.438;18.942;2023-05-09T02:59:17;34.67;;;24.27;;
23406;SDS011;11876;53.438;18.942;2023-05-09T03:02:23;33.97;;;24.77;;
23406;SDS011;11876;53.438;18.942;2023-05-09T03:05:27;34.53;;;25.92;;
23406;SDS011;11876;53.438;18.942;2023-05-09T03:08:29;34.42;;;24.10;;
23406;SDS011;11876;53.438;18.942;2023-05-09T03:11:32;30.38;;;22.05;;
23406;SDS011;11876;53.438;18.942;2023-05-09T03:14:36;26.65;;;21.00;;
23406;SDS011;11876;53.438;18.942;2023-05-09T03:17:38;29.15;;;22.27;;
23406;SDS011;11876;53.438;18.942;2023-05-09T03:20:40;29.10;;;23.35;;
23406;SDS011;11876;53.438;18.942;2023-05-09T03:23:43;28.05;;;22.83;;
23406;SDS011;11876;53.438;18.942;2023-05-09T03:26:46;29.60;;;23.35;;
23406;SDS011;11876;53.438;18.942;2023-05-09T03:29:49;49.15;;;24.10;;
23406;SDS011;11876;53.438;18.942;2023-05-09T03:32:52;28.38;;;20.85;;
23406;SDS011;11876;53.438;18.942;2023-05-09T03:35:55;25.77;;;19.27;;
23406;SDS011;11876;53.438;18.942;2023-05-09T03:38:58;36.33;;;24.55;;
23406;SDS011;11876;53.438;18.942;2023-05-09T03:42:00;26.63;;;21.13;;
23406;SDS011;11876;53.438;18.942;2023-05-09T03:45:03;25.83;;;19.90;;
23406;SDS011;11876;53.438;18.942;2023-05-09T03:48:06;23.75;;;18.52;;
23406;SDS011;11876;53.438;18.942;2023-05-09T03:51:17;23.58;;;18.30;;
23406;SDS011;11876;53.438;18.942;2023-05-09T03:57:24;27.75;;;19.77;;
23406;SDS011;11876;53.438;18.942;2023-05-09T04:00:30;22.30;;;18.20;;
23406;SDS011;11876;53.438;18.942;2023-05-09T04:03:40;26.25;;;17.67;;
23406;SDS011;11876;53.438;18.942;2023-05-09T04:09:49;21.38;;;17.25;;
23406;SDS011;11876;53.438;18.942;2023-05-09T04:12:51;35.70;;;24.23;;
23406;SDS011;11876;53.438;18.942;2023-05-09T04:15:54;50.38;;;22.13;;
23406;SDS011;11876;53.438;18.942;2023-05-09T04:18:58;59.60;;;25.13;;
23406;SDS011;11876;53.438;18.942;2023-05-09T04:22:00;100.28;;;27.00;;
23406;SDS011;11876;53.438;18.942;2023-05-09T04:25:02;49.90;;;24.45;;
23406;SDS011;11876;53.438;18.942;2023-05-09T04:28:05;32.20;;;23.77;;
23406;SDS011;11876;53.438;18.942;2023-05-09T04:31:09;22.52;;;16.17;;
23406;SDS011;11876;53.438;18.942;2023-05-09T04:34:14;21.17;;;17.08;;
23406;SDS011;11876;53.438;18.942;2023-05-09T04:37:16;52.00;;;20.55;;
23406;SDS011;11876;53.438;18.942;2023-05-09T04:40:19;22.48;;;16.95;;
23406;SDS011;11876;53.438;18.942;2023-05-09T04:43:30;19.90;;;15.88;;
23406;SDS011;11876;53.438;18.942;2023-05-09T04:46:32;24.05;;;16.60;;
23406;SDS011;11876;53.438;18.942;2023-05-09T04:49:36;23.93;;;16.20;;
23406;SDS011;11876;53.438;18.942;2023-05-09T04:52:38;75.18;;;20.58;;
23406;SDS011;11876;53.438;18.942;2023-05-09T04:55:41;22.67;;;16.58;;
23406;SDS011;11876;53.438;18.942;2023-05-09T04:58:44;28.40;;;19.80;;
23406;SDS011;11876;53.438;18.942;2023-05-09T05:01:48;35.72;;;27.67;;
23406;SDS011;11876;53.438;18.942;2023-05-09T05:04:51;42.70;;;27.15;;
23406;SDS011;11876;53.438;18.942;2023-05-09T05:08:13;48.30;;;27.40;;
23406;SDS011;11876;53.438;18.942;2023-05-09T05:11:16;28.55;;;21.00;;
23406;SDS011;11876;53.438;18.942;2023-05-09T05:14:20;22.80;;;16.17;;
23406;SDS011;11876;53.438;18.942;2023-05-09T05:17:22;18.48;;;13.85;;
23406;SDS011;11876;53.438;18.942;2023-05-09T05:20:26;16.50;;;11.23;;
23406;SDS011;11876;53.438;18.942;2023-05-09T05:23:29;19.63;;;14.10;;
23406;SDS011;11876;53.438;18.942;2023-05-09T05:26:32;19.05;;;15.23;;
23406;SDS011;11876;53.438;18.942;2023-05-09T05:29:35;21.13;;;16.55;;
23406;SDS011;11876;53.438;18.942;2023-05-09T05:32:37;29.92;;;17.50;;
23406;SDS011;11876;53.438;18.942;2023-05-09T05:35:42;22.02;;;17.52;;
23406;SDS011;11876;53.438;18.942;2023-05-09T05:38:44;22.75;;;16.48;;
23406;SDS011;11876;53.438;18.942;2023-05-09T05:41:47;15.13;;;13.50;;
23406;SDS011;11876;53.438;18.942;2023-05-09T05:44:50;18.67;;;14.88;;
23406;SDS011;11876;53.438;18.942;2023-05-09T05:47:52;26.38;;;15.05;;
23406;SDS011;11876;53.438;18.942;2023-05-09T05:50:57;29.42;;;15.57;;
23406;SDS011;11876;53.438;18.942;2023-05-09T05:54:04;19.10;;;13.73;;
23406;SDS011;11876;53.438;18.942;2023-05-09T05:57:08;23.30;;;14.68;;
23406;SDS011;11876;53.438;18.942;2023-05-09T06:00:11;26.23;;;14.73;;
23406;SDS011;11876;53.438;18.942;2023-05-09T06:03:20;20.83;;;12.27;;
23406;SDS011;11876;53.438;18.942;2023-05-09T06:06:44;16.60;;;10.82;;
23406;SDS011;11876;53.438;18.942;2023-05-09T06:09:47;35.28;;;12.50;;
23406;SDS011;11876;53.438;18.942;2023-05-09T06:12:49;60.80;;;18.10;;
23406;SDS011;11876;53.438;18.942;2023-05-09T06:15:55;26.73;;;15.95;;
23406;SDS011;11876;53.438;18.942;2023-05-09T06:19:08;57.28;;;16.77;;
23406;SDS011;11876;53.438;18.942;2023-05-09T06:22:11;14.27;;;10.80;;
23406;SDS011;11876;53.438;18.942;2023-05-09T06:25:13;18.70;;;12.95;;
23406;SDS011;11876;53.438;18.942;2023-05-09T06:28:16;19.90;;;13.32;;
23406;SDS011;11876;53.438;18.942;2023-05-09T06:31:18;16.10;;;13.15;;
23406;SDS011;11876;53.438;18.942;2023-05-09T06:34:22;23.63;;;12.13;;
23406;SDS011;11876;53.438;18.942;2023-05-09T06:37:24;26.40;;;13.73;;
23406;SDS011;11876;53.438;18.942;2023-05-09T06:40:27;13.73;;;10.27;;
23406;SDS011;11876;53.438;18.942;2023-05-09T06:43:29;12.63;;;9.80;;
23406;SDS011;11876;53.438;18.942;2023-05-09T06:46:32;12.00;;;8.77;;
23406;SDS011;11876;53.438;18.942;2023-05-09T06:49:34;9.52;;;6.40;;
23406;SDS011;11876;53.438;18.942;2023-05-09T06:52:37;19.35;;;6.15;;
23406;SDS011;11876;53.438;18.942;2023-05-09T06:55:39;8.88;;;5.50;;
23406;SDS011;11876;53.438;18.942;2023-05-09T06:58:42;6.03;;;5.07;;
23406;SDS011;11876;53.438;18.942;2023-05-09T07:01:45;8.77;;;6.05;;
23406;SDS011;11876;53.438;18.942;2023-05-09T07:04:47;9.93;;;6.90;;
23406;SDS011;11876;53.438;18.942;2023-05-09T07:07:50;5.82;;;4.47;;
23406;SDS011;11876;53.438;18.942;2023-05-09T07:10:55;14.10;;;5.10;;
23406;SDS011;11876;53.438;18.942;2023-05-09T07:13:58;13.45;;;5.07;;
23406;SDS011;11876;53.438;18.942;2023-05-09T07:17:00;11.18;;;5.93;;
23406;SDS011;11876;53.438;18.942;2023-05-09T07:20:23;20.48;;;5.88;;
23406;SDS011;11876;53.438;18.942;2023-05-09T07:23:26;9.57;;;5.07;;
23406;SDS011;11876;53.438;18.942;2023-05-09T07:26:28;7.95;;;3.95;;
23406;SDS011;11876;53.438;18.942;2023-05-09T07:29:31;7.00;;;5.25;;
23406;SDS011;11876;53.438;18.942;2023-05-09T07:32:34;6.80;;;5.43;;
23406;SDS011;11876;53.438;18.942;2023-05-09T07:35:36;10.63;;;5.95;;
23406;SDS011;11876;53.438;18.942;2023-05-09T07:38:39;9.73;;;2.78;;
23406;SDS011;11876;53.438;18.942;2023-05-09T07:41:41;4.90;;;4.20;;
23406;SDS011;11876;53.438;18.942;2023-05-09T07:44:44;6.70;;;3.28;;
23406;SDS011;11876;53.438;18.942;2023-05-09T07:47:47;4.90;;;3.88;;
23406;SDS011;11876;53.438;18.942;2023-05-09T07:50:49;12.88;;;4.55;;
23406;SDS011;11876;53.438;18.942;2023-05-09T07:53:51;4.50;;;3.38;;
23406;SDS011;11876;53.438;18.942;2023-05-09T07:56:56;3.72;;;3.20;;
23406;SDS011;11876;53.438;18.942;2023-05-09T07:59:59;7.13;;;3.42;;
23406;SDS011;11876;53.438;18.942;2023-05-09T08:03:01;57.22;;;7.50;;
23406;SDS011;11876;53.438;18.942;2023-05-09T08:06:04;9.23;;;3.58;;
23406;SDS011;11876;53.438;18.942;2023-05-09T08:09:06;8.20;;;3.00;;
23406;SDS011;11876;53.438;18.942;2023-05-09T08:12:09;3.10;;;2.78;;
23406;SDS011;11876;53.438;18.942;2023-05-09T08:15:11;6.63;;;2.60;;
23406;SDS011;11876;53.438;18.942;2023-05-09T08:18:14;2.50;;;2.10;;
23406;SDS011;11876;53.438;18.942;2023-05-09T08:21:17;2.97;;;2.20;;
23406;SDS011;11876;53.438;18.942;2023-05-09T08:24:22;5.75;;;2.70;;
23406;SDS011;11876;53.438;18.942;2023-05-09T08:27:24;5.28;;;2.53;;
23406;SDS011;11876;53.438;18.942;2023-05-09T08:30:27;5.63;;;3.10;;
23406;SDS011;11876;53.438;18.942;2023-05-09T08:33:30;8.52;;;3.40;;
23406;SDS011;11876;53.438;18.942;2023-05-09T08:36:32;3.83;;;2.20;;
23406;SDS011;11876;53.438;18.942;2023-05-09T08:39:34;5.00;;;2.78;;
23406;SDS011;11876;53.438;18.942;2023-05-09T08:42:37;2.97;;;2.25;;
23406;SDS011;11876;53.438;18.942;2023-05-09T08:45:49;2.58;;;2.30;;
23406;SDS011;11876;53.438;18.942;2023-05-09T08:48:53;2.78;;;2.55;;
23406;SDS011;11876;53.438;18.942;2023-05-09T08:51:57;8.63;;;2.75;;
23406;SDS011;11876;53.438;18.942;2023-05-09T08:55:00;4.10;;;2.50;;
23406;SDS011;11876;53.438;18.942;2023-05-09T08:58:05;4.22;;;2.55;;
23406;SDS011;11876;53.438;18.942;2023-05-09T09:01:08;11.50;;;3.03;;
23406;SDS011;11876;53.438;18.942;2023-05-09T09:04:11;5.70;;;2.65;;
23406;SDS011;11876;53.438;18.942;2023-05-09T09:07:13;46.03;;;5.90;;
23406;SDS011;11876;53.438;18.942;2023-05-09T09:10:17;7.77;;;2.30;;
23406;SDS011;11876;53.438;18.942;2023-05-09T09:13:21;5.05;;;2.80;;
23406;SDS011;11876;53.438;18.942;2023-05-09T09:16:24;6.72;;;3.25;;
23406;SDS011;11876;53.438;18.942;2023-05-09T09:19:28;4.65;;;2.60;;
23406;SDS011;11876;53.438;18.942;2023-05-09T09:22:32;3.37;;;2.57;;
23406;SDS011;11876;53.438;18.942;2023-05-09T09:25:35;4.60;;;3.53;;
23406;SDS011;11876;53.438;18.942;2023-05-09T09:28:37;11.20;;;3.25;;
23406;SDS011;11876;53.438;18.942;2023-05-09T09:31:42;4.68;;;2.67;;
23406;SDS011;11876;53.438;18.942;2023-05-09T09:34:49;10.05;;;3.25;;
23406;SDS011;11876;53.438;18.942;2023-05-09T09:37:55;10.32;;;3.15;;
23406;SDS011;11876;53.438;18.942;2023-05-09T09:41:02;3.00;;;2.03;;
23406;SDS011;11876;53.438;18.942;2023-05-09T09:44:08;5.20;;;2.97;;
23406;SDS011;11876;53.438;18.942;2023-05-09T09:47:14;4.53;;;2.67;;
23406;SDS011;11876;53.438;18.942;2023-05-09T09:50:17;4.97;;;2.80;;
23406;SDS011;11876;53.438;18.942;2023-05-09T09:53:25;9.57;;;2.88;;
23406;SDS011;11876;53.438;18.942;2023-05-09T09:57:04;12.38;;;4.22;;
23406;SDS011;11876;53.438;18.942;2023-05-09T09:59:59;8.27;;;2.80;;
23406;SDS011;11876;53.438;18.942;2023-05-09T10:03:02;9.18;;;3.92;;
23406;SDS011;11876;53.438;18.942;2023-05-09T10:06:08;8.57;;;3.20;;
23406;SDS011;11876;53.438;18.942;2023-05-09T10:09:14;14.57;;;3.47;;
23406;SDS011;11876;53.438;18.942;2023-05-09T10:12:16;3.40;;;2.17;;
23406;SDS011;11876;53.438;18.942;2023-05-09T10:18:24;11.13;;;3.05;;
23406;SDS011;11876;53.438;18.942;2023-05-09T10:21:29;5.35;;;2.05;;
23406;SDS011;11876;53.438;18.942;2023-05-09T10:24:41;2.95;;;2.03;;
23406;SDS011;11876;53.438;18.942;2023-05-09T10:27:49;5.70;;;2.40;;
23406;SDS011;11876;53.438;18.942;2023-05-09T10:31:06;13.00;;;3.28;;
23406;SDS011;11876;53.438;18.942;2023-05-09T10:34:11;5.10;;;2.45;;
23406;SDS011;11876;53.438;18.942;2023-05-09T10:37:14;46.70;;;6.65;;
23406;SDS011;11876;53.438;18.942;2023-05-09T10:40:17;11.10;;;3.25;;
23406;SDS011;11876;53.438;18.942;2023-05-09T10:43:20;7.90;;;2.85;;
23406;SDS011;11876;53.438;18.942;2023-05-09T10:46:24;5.38;;;2.25;;
23406;SDS011;11876;53.438;18.942;2023-05-09T10:49:28;7.40;;;1.83;;
23406;SDS011;11876;53.438;18.942;2023-05-09T10:52:31;7.70;;;2.72;;
23406;SDS011;11876;53.438;18.942;2023-05-09T10:56:20;7.45;;;3.10;;
23406;SDS011;11876;53.438;18.942;2023-05-09T10:59:00;6.55;;;3.00;;
23406;SDS011;11876;53.438;18.942;2023-05-09T11:02:03;4.93;;;2.58;;
23406;SDS011;11876;53.438;18.942;2023-05-09T11:05:11;3.83;;;2.30;;
23406;SDS011;11876;53.438;18.942;2023-05-09T11:11:30;8.05;;;2.92;;
23406;SDS011;11876;53.438;18.942;2023-05-09T11:17:39;7.50;;;3.08;;
23406;SDS011;11876;53.438;18.942;2023-05-09T11:20:42;27.65;;;4.97;;
23406;SDS011;11876;53.438;18.942;2023-05-09T11:23:46;3.22;;;2.45;;
23406;SDS011;11876;53.438;18.942;2023-05-09T11:26:49;4.72;;;2.50;;
23406;SDS011;11876;53.438;18.942;2023-05-09T11:29:56;4.97;;;2.30;;
23406;SDS011;11876;53.438;18.942;2023-05-09T11:32:59;6.22;;;2.80;;
23406;SDS011;11876;53.438;18.942;2023-05-09T11:39:53;7.78;;;3.00;;
23406;SDS011;11876;53.438;18.942;2023-05-09T11:42:58;36.72;;;6.50;;
23406;SDS011;11876;53.438;18.942;2023-05-09T11:46:02;7.03;;;2.85;;
23406;SDS011;11876;53.438;18.942;2023-05-09T11:49:05;7.93;;;2.50;;
23406;SDS011;11876;53.438;18.942;2023-05-09T11:52:11;11.75;;;3.30;;
23406;SDS011;11876;53.438;18.942;2023-05-09T11:55:17;3.47;;;2.45;;
23406;SDS011;11876;53.438;18.942;2023-05-09T11:58:26;6.18;;;3.05;;
23406;SDS011;11876;53.438;18.942;2023-05-09T12:01:29;4.55;;;2.60;;
23406;SDS011;11876;53.438;18.942;2023-05-09T12:04:33;6.50;;;2.92;;
23406;SDS011;11876;53.438;18.942;2023-05-09T12:07:37;2.60;;;2.40;;
23406;SDS011;11876;53.438;18.942;2023-05-09T12:10:40;5.38;;;2.45;;
23406;SDS011;11876;53.438;18.942;2023-05-09T12:13:49;9.43;;;2.50;;
23406;SDS011;11876;53.438;18.942;2023-05-09T12:16:53;4.88;;;2.50;;
23406;SDS011;11876;53.438;18.942;2023-05-09T12:19:57;3.20;;;2.30;;
23406;SDS011;11876;53.438;18.942;2023-05-09T12:23:01;2.63;;;2.30;;
23406;SDS011;11876;53.438;18.942;2023-05-09T12:26:04;7.82;;;2.60;;
23406;SDS011;11876;53.438;18.942;2023-05-09T12:29:07;8.00;;;2.95;;
23406;SDS011;11876;53.438;18.942;2023-05-09T12:32:09;7.13;;;2.67;;
23406;SDS011;11876;53.438;18.942;2023-05-09T12:35:12;16.17;;;3.72;;
23406;SDS011;11876;53.438;18.942;2023-05-09T12:38:21;4.70;;;2.75;;
23406;SDS011;11876;53.438;18.942;2023-05-09T12:41:24;8.75;;;2.80;;
23406;SDS011;11876;53.438;18.942;2023-05-09T12:44:29;4.50;;;2.58;;
23406;SDS011;11876;53.438;18.942;2023-05-09T12:47:34;7.72;;;3.42;;
23406;SDS011;11876;53.438;18.942;2023-05-09T12:50:46;2.85;;;2.40;;
23406;SDS011;11876;53.438;18.942;2023-05-09T12:53:48;4.20;;;2.75;;
23406;SDS011;11876;53.438;18.942;2023-05-09T12:56:51;12.20;;;2.85;;
23406;SDS011;11876;53.438;18.942;2023-05-09T12:59:57;9.30;;;3.60;;
23406;SDS011;11876;53.438;18.942;2023-05-09T13:03:00;42.07;;;5.03;;
23406;SDS011;11876;53.438;18.942;2023-05-09T13:06:03;6.32;;;2.90;;
23406;SDS011;11876;53.438;18.942;2023-05-09T13:09:07;10.57;;;3.33;;
23406;SDS011;11876;53.438;18.942;2023-05-09T13:12:13;3.33;;;2.70;;
23406;SDS011;11876;53.438;18.942;2023-05-09T13:15:16;7.47;;;3.35;;
23406;SDS011;11876;53.438;18.942;2023-05-09T13:18:20;4.10;;;2.70;;
23406;SDS011;11876;53.438;18.942;2023-05-09T13:21:24;3.25;;;2.80;;
23406;SDS011;11876;53.438;18.942;2023-05-09T13:24:27;3.25;;;2.60;;
23406;SDS011;11876;53.438;18.942;2023-05-09T13:27:30;4.70;;;2.88;;
23406;SDS011;11876;53.438;18.942;2023-05-09T13:30:33;5.18;;;3.00;;
23406;SDS011;11876;53.438;18.942;2023-05-09T13:33:36;14.13;;;4.28;;
23406;SDS011;11876;53.438;18.942;2023-05-09T13:36:39;8.77;;;3.20;;
23406;SDS011;11876;53.438;18.942;2023-05-09T13:39:41;5.20;;;3.30;;
23406;SDS011;11876;53.438;18.942;2023-05-09T13:42:44;8.63;;;5.03;;
23406;SDS011;11876;53.438;18.942;2023-05-09T13:45:48;7.60;;;3.72;;
23406;SDS011;11876;53.438;18.942;2023-05-09T13:48:51;6.43;;;3.25;;
23406;SDS011;11876;53.438;18.942;2023-05-09T13:51:54;4.85;;;2.85;;
23406;SDS011;11876;53.438;18.942;2023-05-09T13:54:57;3.97;;;3.08;;
23406;SDS011;11876;53.438;18.942;2023-05-09T13:57:59;9.63;;;3.30;;
23406;SDS011;11876;53.438;18.942;2023-05-09T14:01:02;13.30;;;3.85;;
23406;SDS011;11876;53.438;18.942;2023-05-09T14:04:04;5.70;;;3.38;;
23406;SDS011;11876;53.438;18.942;2023-05-09T14:07:07;7.13;;;3.40;;
23406;SDS011;11876;53.438;18.942;2023-05-09T14:10:12;10.25;;;3.83;;
23406;SDS011;11876;53.438;18.942;2023-05-09T14:13:14;7.72;;;3.63;;
23406;SDS011;11876;53.438;18.942;2023-05-09T14:16:20;5.53;;;3.13;;
23406;SDS011;11876;53.438;18.942;2023-05-09T14:19:23;25.80;;;5.45;;
23406;SDS011;11876;53.438;18.942;2023-05-09T14:22:27;76.30;;;48.05;;
23406;SDS011;11876;53.438;18.942;2023-05-09T14:25:29;5.28;;;3.42;;
23406;SDS011;11876;53.438;18.942;2023-05-09T14:28:32;4.95;;;2.78;;
23406;SDS011;11876;53.438;18.942;2023-05-09T14:31:35;11.77;;;7.15;;
23406;SDS011;11876;53.438;18.942;2023-05-09T14:34:37;5.22;;;2.72;;
23406;SDS011;11876;53.438;18.942;2023-05-09T14:37:40;7.03;;;4.18;;
23406;SDS011;11876;53.438;18.942;2023-05-09T14:40:42;6.68;;;2.85;;
23406;SDS011;11876;53.438;18.942;2023-05-09T14:43:45;15.38;;;4.03;;
23406;SDS011;11876;53.438;18.942;2023-05-09T14:46:47;3.35;;;2.58;;
23406;SDS011;11876;53.438;18.942;2023-05-09T14:49:50;12.43;;;3.05;;
23406;SDS011;11876;53.438;18.942;2023-05-09T14:52:53;8.77;;;4.68;;
23406;SDS011;11876;53.438;18.942;2023-05-09T14:55:55;7.90;;;3.05;;
23406;SDS011;11876;53.438;18.942;2023-05-09T14:58:57;6.40;;;3.03;;
23406;SDS011;11876;53.438;18.942;2023-05-09T15:02:00;4.38;;;2.42;;
23406;SDS011;11876;53.438;18.942;2023-05-09T15:05:03;8.85;;;3.22;;
23406;SDS011;11876;53.438;18.942;2023-05-09T15:08:06;3.20;;;1.92;;
23406;SDS011;11876;53.438;18.942;2023-05-09T15:11:08;4.07;;;2.20;;
23406;SDS011;11876;53.438;18.942;2023-05-09T15:14:11;5.80;;;3.10;;
23406;SDS011;11876;53.438;18.942;2023-05-09T15:17:14;2.80;;;2.33;;
23406;SDS011;11876;53.438;18.942;2023-05-09T15:20:16;3.97;;;2.17;;
23406;SDS011;11876;53.438;18.942;2023-05-09T15:23:19;22.23;;;9.13;;
23406;SDS011;11876;53.438;18.942;2023-05-09T15:26:23;5.18;;;3.30;;
23406;SDS011;11876;53.438;18.942;2023-05-09T15:29:25;88.60;;;6.65;;
23406;SDS011;11876;53.438;18.942;2023-05-09T15:32:27;2.30;;;2.10;;
23406;SDS011;11876;53.438;18.942;2023-05-09T15:35:30;8.77;;;4.35;;
23406;SDS011;11876;53.438;18.942;2023-05-09T15:38:33;15.95;;;4.32;;
23406;SDS011;11876;53.438;18.942;2023-05-09T15:41:35;3.03;;;2.00;;
23406;SDS011;11876;53.438;18.942;2023-05-09T15:44:38;3.38;;;2.00;;
23406;SDS011;11876;53.438;18.942;2023-05-09T15:47:41;20.50;;;3.50;;
23406;SDS011;11876;53.438;18.942;2023-05-09T15:50:43;8.68;;;2.40;;
23406;SDS011;11876;53.438;18.942;2023-05-09T15:53:46;6.28;;;3.92;;
23406;SDS011;11876;53.438;18.942;2023-05-09T15:56:53;11.95;;;6.43;;
23406;SDS011;11876;53.438;18.942;2023-05-09T15:59:56;5.93;;;2.60;;
23406;SDS011;11876;53.438;18.942;2023-05-09T16:02:58;5.22;;;2.45;;
23406;SDS011;11876;53.438;18.942;2023-05-09T16:06:01;13.60;;;3.13;;
23406;SDS011;11876;53.438;18.942;2023-05-09T16:09:04;4.25;;;2.05;;
23406;SDS011;11876;53.438;18.942;2023-05-09T16:12:07;4.00;;;2.10;;
23406;SDS011;11876;53.438;18.942;2023-05-09T16:15:09;4.70;;;2.92;;
23406;SDS011;11876;53.438;18.942;2023-05-09T16:18:12;8.13;;;3.10;;
23406;SDS011;11876;53.438;18.942;2023-05-09T16:21:16;4.78;;;2.88;;
23406;SDS011;11876;53.438;18.942;2023-05-09T16:24:19;4.78;;;3.08;;
23406;SDS011;11876;53.438;18.942;2023-05-09T16:27:21;6.45;;;3.03;;
23406;SDS011;11876;53.438;18.942;2023-05-09T16:30:24;4.95;;;2.40;;
23406;SDS011;11876;53.438;18.942;2023-05-09T16:33:26;5.22;;;3.15;;
23406;SDS011;11876;53.438;18.942;2023-05-09T16:36:29;6.95;;;3.70;;
23406;SDS011;11876;53.438;18.942;2023-05-09T16:39:33;5.30;;;3.03;;
23406;SDS011;11876;53.438;18.942;2023-05-09T16:42:47;3.17;;;2.28;;
23406;SDS011;11876;53.438;18.942;2023-05-09T16:45:50;4.53;;;2.65;;
23406;SDS011;11876;53.438;18.942;2023-05-09T16:48:53;3.92;;;2.70;;
23406;SDS011;11876;53.438;18.942;2023-05-09T16:51:56;5.25;;;2.78;;
23406;SDS011;11876;53.438;18.942;2023-05-09T16:54:58;5.85;;;3.13;;
23406;SDS011;11876;53.438;18.942;2023-05-09T16:58:01;5.75;;;3.55;;
23406;SDS011;11876;53.438;18.942;2023-05-09T17:01:03;4.00;;;2.70;;
23406;SDS011;11876;53.438;18.942;2023-05-09T17:04:06;2.70;;;2.50;;
23406;SDS011;11876;53.438;18.942;2023-05-09T17:07:08;3.88;;;2.78;;
23406;SDS011;11876;53.438;18.942;2023-05-09T17:10:13;6.53;;;2.50;;
23406;SDS011;11876;53.438;18.942;2023-05-09T17:13:16;4.80;;;2.63;;
23406;SDS011;11876;53.438;18.942;2023-05-09T17:16:18;5.22;;;2.42;;
23406;SDS011;11876;53.438;18.942;2023-05-09T17:19:21;5.90;;;2.80;;
23406;SDS011;11876;53.438;18.942;2023-05-09T17:22:24;4.63;;;2.45;;
23406;SDS011;11876;53.438;18.942;2023-05-09T17:25:27;4.07;;;2.25;;
23406;SDS011;11876;53.438;18.942;2023-05-09T17:28:29;5.97;;;2.30;;
23406;SDS011;11876;53.438;18.942;2023-05-09T17:31:32;6.80;;;3.28;;
23406;SDS011;11876;53.438;18.942;2023-05-09T17:34:34;9.48;;;3.05;;
23406;SDS011;11876;53.438;18.942;2023-05-09T17:37:38;3.65;;;2.53;;
23406;SDS011;11876;53.438;18.942;2023-05-09T17:40:40;5.35;;;2.63;;
23406;SDS011;11876;53.438;18.942;2023-05-09T17:43:43;6.65;;;3.15;;
23406;SDS011;11876;53.438;18.942;2023-05-09T17:46:46;5.93;;;2.97;;
23406;SDS011;11876;53.438;18.942;2023-05-09T17:49:49;4.80;;;2.25;;
23406;SDS011;11876;53.438;18.942;2023-05-09T17:52:52;5.32;;;3.20;;
23406;SDS011;11876;53.438;18.942;2023-05-09T17:55:57;6.03;;;3.42;;
23406;SDS011;11876;53.438;18.942;2023-05-09T17:58:59;5.05;;;3.30;;
23406;SDS011;11876;53.438;18.942;2023-05-09T18:02:02;5.82;;;3.20;;
23406;SDS011;11876;53.438;18.942;2023-05-09T18:05:06;6.93;;;3.70;;
23406;SDS011;11876;53.438;18.942;2023-05-09T18:08:10;7.53;;;4.05;;
23406;SDS011;11876;53.438;18.942;2023-05-09T18:11:12;8.68;;;4.00;;
23406;SDS011;11876;53.438;18.942;2023-05-09T18:14:15;4.97;;;3.22;;
23406;SDS011;11876;53.438;18.942;2023-05-09T18:17:18;6.18;;;3.80;;
23406;SDS011;11876;53.438;18.942;2023-05-09T18:20:20;7.15;;;3.83;;
23406;SDS011;11876;53.438;18.942;2023-05-09T18:23:23;9.65;;;3.88;;
23406;SDS011;11876;53.438;18.942;2023-05-09T18:26:26;5.00;;;3.80;;
23406;SDS011;11876;53.438;18.942;2023-05-09T18:29:29;7.00;;;4.32;;
23406;SDS011;11876;53.438;18.942;2023-05-09T18:32:31;7.90;;;4.68;;